Time;durP1;ratioP1;P1;durP2;ratioP2;P2;SDS_P1;SDS_P2;PMS_P1;PMS_P2;Temp;Humidity;BMP_temperature;BMP_pressure;BME280_temperature;BME280_humidity;BME280_pressure;Samples;Min_cycle;Max_cycle;Signal;HPM_P1;HPM_P2
2023/03/03 00:03:03;;;;;;;11.27;7.03;;;4.50;84.30;;;;;;10497690;28;20219;-71
2023/03/03 00:08:04;;;;;;;11.43;7.57;;;4.40;85.10;;;;;;10496133;28;20757;-73
2023/03/03 00:13:20;;;;;;;11.63;7.03;;;4.30;85.60;;;;;;10496679;28;20215;-75
2023/03/03 00:18:29;;;;;;;11.03;7.10;;;4.20;86.00;;;;;;10495687;28;20243;-75
2023/03/03 00:23:35;;;;;;;10.63;7.10;;;4.10;87.10;;;;;;10529405;28;20599;-81
2023/03/03 00:28:47;;;;;;;11.60;7.77;;;4.00;88.50;;;;;;10495831;28;20689;-76
2023/03/03 00:33:53;;;;;;;14.17;8.53;;;3.90;88.80;;;;;;10495729;28;20227;-77
2023/03/03 00:38:56;;;;;;;19.80;10.23;;;3.80;89.80;;;;;;10496809;28;20262;-78
2023/03/03 00:43:57;;;;;;;20.20;9.73;;;3.90;90.60;;;;;;10495536;28;20228;-78
2023/03/03 00:48:58;;;;;;;15.00;10.17;;;3.90;91.10;;;;;;10494700;28;20223;-78
2023/03/03 00:53:59;;;;;;;18.23;9.67;;;4.00;91.60;;;;;;10493935;28;20217;-76
2023/03/03 00:58:59;;;;;;;17.33;9.87;;;3.90;91.80;;;;;;10495515;28;20238;-74
2023/03/03 01:04:00;;;;;;;16.00;9.87;;;3.90;92.20;;;;;;10495155;28;20221;-75
2023/03/03 01:09:00;;;;;;;14.73;10.33;;;3.80;92.50;;;;;;10492781;28;20219;-75
2023/03/03 01:14:01;;;;;;;16.27;10.23;;;3.80;92.70;;;;;;10493756;28;20220;-74
2023/03/03 01:19:02;;;;;;;14.63;9.30;;;3.70;93.20;;;;;;10493808;28;20227;-74
2023/03/03 01:24:03;;;;;;;13.53;8.67;;;3.50;93.70;;;;;;10494357;28;20309;-70
2023/03/03 01:29:03;;;;;;;13.90;9.50;;;3.40;94.30;;;;;;10525817;28;20324;-72
2023/03/03 01:34:06;;;;;;;12.07;9.50;;;3.30;94.90;;;;;;10494050;28;20230;-74
2023/03/03 01:39:06;;;;;;;15.17;11.27;;;3.20;95.70;;;;;;10494011;28;20246;-77
2023/03/03 01:44:13;;;;;;;18.43;10.63;;;3.20;96.90;;;;;;10491868;28;20233;-77
2023/03/03 01:49:35;;;;;;;17.30;11.20;;;3.30;98.30;;;;;;10526137;28;20230;-75
2023/03/03 01:54:42;;;;;;;15.80;11.03;;;3.30;99.50;;;;;;10485457;28;20615;-74
2023/03/03 01:59:47;;;;;;;15.07;11.37;;;3.20;99.90;;;;;;10493267;28;20771;-77
2023/03/03 02:04:49;;;;;;;16.93;11.80;;;3.20;99.90;;;;;;10492652;28;20215;-76
2023/03/03 02:10:09;;;;;;;18.57;12.20;;;3.20;99.90;;;;;;10491515;28;20253;-76
2023/03/03 02:15:15;;;;;;;18.40;12.43;;;3.20;99.90;;;;;;10491888;28;20227;-75
2023/03/03 02:20:39;;;;;;;18.40;12.23;;;3.20;99.90;;;;;;10490451;28;20210;-76
2023/03/03 02:25:48;;;;;;;18.50;12.20;;;3.20;99.90;;;;;;10484745;28;20330;-77
2023/03/03 02:30:49;;;;;;;17.97;12.40;;;3.10;99.90;;;;;;10490525;28;20216;-76
2023/03/03 02:35:51;;;;;;;20.10;12.90;;;3.10;99.90;;;;;;10491433;28;20227;-75
2023/03/03 02:41:15;;;;;;;21.37;13.97;;;3.10;99.90;;;;;;10491099;28;20268;-77
2023/03/03 02:46:15;;;;;;;21.50;14.50;;;3.00;99.90;;;;;;10489712;28;20229;-72
2023/03/03 02:51:16;;;;;;;20.33;13.77;;;3.00;99.90;;;;;;10490315;28;20222;-71
2023/03/03 02:56:16;;;;;;;22.97;14.10;;;2.90;99.90;;;;;;10491158;28;20341;-74
2023/03/03 03:01:18;;;;;;;19.50;13.10;;;2.90;99.90;;;;;;10490617;28;20219;-74
2023/03/03 03:06:18;;;;;;;23.13;14.07;;;2.90;99.90;;;;;;10490456;28;20313;-72
2023/03/03 03:11:19;;;;;;;22.73;14.30;;;2.80;99.90;;;;;;10490163;28;20221;-71
2023/03/03 03:16:20;;;;;;;20.43;13.83;;;2.80;99.90;;;;;;10489517;28;20243;-71
2023/03/03 03:21:21;;;;;;;22.67;15.37;;;2.80;99.90;;;;;;10489458;28;20830;-73
2023/03/03 03:26:21;;;;;;;23.50;14.77;;;2.70;99.90;;;;;;10488888;28;20220;-74
2023/03/03 03:31:26;;;;;;;23.03;16.27;;;2.60;99.90;;;;;;10491362;28;20721;-74
2023/03/03 03:36:27;;;;;;;26.57;16.07;;;2.50;99.90;;;;;;10532296;28;20230;-75
2023/03/03 03:41:27;;;;;;;23.37;16.20;;;2.50;99.90;;;;;;10498717;28;20219;-77
2023/03/03 03:46:28;;;;;;;25.60;16.60;;;2.40;99.90;;;;;;10497018;28;20253;-75
2023/03/03 03:51:30;;;;;;;21.93;15.77;;;2.40;99.90;;;;;;10498093;28;20627;-74
2023/03/03 03:56:30;;;;;;;23.60;16.13;;;2.40;99.90;;;;;;10495710;28;20226;-73
2023/03/03 04:01:31;;;;;;;23.80;16.57;;;2.30;99.90;;;;;;10495525;28;20752;-73
2023/03/03 04:06:31;;;;;;;25.77;16.20;;;2.30;99.90;;;;;;10487775;28;20261;-73
2023/03/03 04:11:32;;;;;;;24.37;16.10;;;2.20;99.90;;;;;;10495631;28;20242;-75
2023/03/03 04:16:33;;;;;;;26.60;17.00;;;2.20;99.90;;;;;;10496558;28;20239;-75
2023/03/03 04:21:33;;;;;;;25.87;16.43;;;2.20;99.90;;;;;;10494985;28;20222;-73
2023/03/03 04:26:34;;;;;;;28.40;18.40;;;2.20;99.90;;;;;;10496943;28;20225;-76
2023/03/03 04:31:35;;;;;;;25.73;18.17;;;2.10;99.90;;;;;;10496760;28;20646;-75
2023/03/03 04:36:35;;;;;;;31.30;20.57;;;2.00;99.90;;;;;;10496126;28;20567;-74
2023/03/03 04:41:37;;;;;;;36.40;19.77;;;2.00;99.90;;;;;;10495307;28;20221;-74
2023/03/03 04:46:37;;;;;;;31.63;20.30;;;2.00;99.90;;;;;;10528295;28;20207;-74
2023/03/03 04:51:38;;;;;;;34.13;21.47;;;2.00;99.90;;;;;;10495138;28;20678;-77
2023/03/03 04:56:39;;;;;;;36.00;22.33;;;2.00;99.90;;;;;;10487508;28;20223;-75
2023/03/03 05:01:39;;;;;;;41.27;22.83;;;2.00;99.90;;;;;;10494003;28;20207;-71
2023/03/03 05:06:40;;;;;;;38.30;22.97;;;2.00;99.90;;;;;;10495610;28;20624;-75
2023/03/03 05:11:41;;;;;;;38.27;24.27;;;1.90;99.90;;;;;;10494280;28;20215;-75
2023/03/03 05:16:41;;;;;;;37.97;23.73;;;1.80;99.90;;;;;;10493370;28;20251;-75
2023/03/03 05:21:42;;;;;;;37.33;24.67;;;1.80;99.90;;;;;;10486837;28;20211;-79
2023/03/03 05:26:43;;;;;;;37.87;23.33;;;1.80;99.90;;;;;;10494794;28;20220;-77
2023/03/03 05:31:44;;;;;;;39.00;24.57;;;1.70;99.90;;;;;;10494643;28;20219;-79
2023/03/03 05:37:06;;;;;;;39.47;23.63;;;1.70;99.90;;;;;;10493074;28;20231;-76
2023/03/03 05:42:07;;;;;;;39.17;24.53;;;1.70;99.90;;;;;;10481266;28;20307;-73
2023/03/03 05:47:08;;;;;;;41.20;24.83;;;1.70;99.90;;;;;;10814915;22;20719;-63
2023/03/03 05:52:09;;;;;;;41.63;24.73;;;1.70;99.90;;;;;;10312284;28;20261;-66
2023/03/03 05:57:09;;;;;;;40.00;24.93;;;1.80;99.90;;;;;;10323480;28;20247;-68
2023/03/03 06:02:10;;;;;;;44.07;25.37;;;1.80;99.90;;;;;;10311001;28;20218;-65
2023/03/03 06:07:11;;;;;;;46.40;26.77;;;1.80;99.90;;;;;;10318245;28;20245;-65
2023/03/03 06:12:11;;;;;;;47.67;27.83;;;1.80;99.90;;;;;;10321783;28;20231;-68
2023/03/03 06:17:12;;;;;;;39.60;25.23;;;1.70;99.90;;;;;;10322638;28;20229;-65
2023/03/03 06:22:13;;;;;;;43.50;25.97;;;1.70;99.90;;;;;;10314013;28;20519;-66
2023/03/03 06:27:13;;;;;;;47.87;26.93;;;1.60;99.90;;;;;;10308250;28;20232;-66
2023/03/03 06:32:14;;;;;;;44.23;25.37;;;1.60;99.90;;;;;;10311799;28;20234;-69
2023/03/03 06:37:15;;;;;;;43.40;27.07;;;1.70;99.90;;;;;;10302377;28;20233;-70
2023/03/03 06:42:15;;;;;;;39.93;25.63;;;1.80;99.90;;;;;;10315619;28;20746;-68
2023/03/03 06:47:16;;;;;;;42.13;25.80;;;1.80;99.90;;;;;;10320340;28;20237;-68
2023/03/03 06:52:21;;;;;;;44.33;26.67;;;1.90;99.90;;;;;;10310067;28;20248;-69
2023/03/03 06:57:31;;;;;;;42.43;25.80;;;2.10;99.90;;;;;;10314100;28;20272;-69
2023/03/03 07:02:31;;;;;;;45.10;28.23;;;2.10;99.90;;;;;;10301977;28;20313;-70
2023/03/03 07:07:32;;;;;;;44.63;28.33;;;2.10;99.90;;;;;;10301894;28;20332;-70
2023/03/03 07:12:36;;;;;;;40.57;26.37;;;2.40;99.90;;;;;;10302260;28;20361;-69
2023/03/03 07:17:41;;;;;;;42.70;26.83;;;2.50;99.90;;;;;;10315725;28;20238;-68
2023/03/03 07:22:42;;;;;;;45.03;26.73;;;2.50;99.90;;;;;;10311071;28;20257;-69
2023/03/03 07:27:43;;;;;;;46.00;27.77;;;2.70;99.90;;;;;;10331456;28;20237;-68
2023/03/03 07:32:48;;;;;;;43.33;26.97;;;2.70;99.90;;;;;;10310184;28;20579;-67
2023/03/03 07:37:48;;;;;;;46.33;28.10;;;2.70;99.90;;;;;;10306552;28;20226;-70
2023/03/03 07:42:50;;;;;;;47.43;28.10;;;2.80;99.90;;;;;;10302991;28;20250;-68
2023/03/03 07:47:50;;;;;;;45.33;28.77;;;3.00;99.90;;;;;;10308452;28;20225;-69
2023/03/03 07:52:59;;;;;;;47.30;28.47;;;3.60;99.90;;;;;;10303732;28;20226;-68
2023/03/03 07:58:33;;;;;;;40.97;26.67;;;4.30;99.90;;;;;;10311781;28;20238;-69
2023/03/03 08:03:34;;;;;;;39.13;26.63;;;4.30;99.90;;;;;;10305315;28;20276;-69
2023/03/03 08:08:41;;;;;;;40.40;25.33;;;4.70;99.90;;;;;;10308092;28;20229;-68
2023/03/03 08:13:42;;;;;;;36.83;24.17;;;5.00;99.90;;;;;;10313115;28;20280;-69
2023/03/03 08:18:46;;;;;;;33.20;23.23;;;5.70;99.90;;;;;;10309287;28;20588;-69
2023/03/03 08:23:50;;;;;;;37.07;25.30;;;5.80;99.90;;;;;;10310377;28;20306;-68
2023/03/03 08:28:52;;;;;;;39.23;25.83;;;5.20;99.90;;;;;;10319619;28;20218;-70
2023/03/03 08:33:52;;;;;;;39.53;25.57;;;5.10;99.90;;;;;;10315579;28;20229;-69
2023/03/03 08:38:53;;;;;;;38.47;24.97;;;5.20;99.90;;;;;;10317013;28;20237;-69
2023/03/03 08:43:54;;;;;;;40.87;25.17;;;5.60;99.90;;;;;;10318026;28;20232;-68
2023/03/03 08:48:54;;;;;;;38.73;25.70;;;5.50;99.90;;;;;;10311468;28;20280;-69
2023/03/03 08:53:55;;;;;;;34.87;24.07;;;7.50;99.90;;;;;;10310298;28;20222;-68
2023/03/03 08:58:55;;;;;;;34.40;23.10;;;10.80;99.90;;;;;;10311667;28;20230;-72
2023/03/03 09:03:56;;;;;;;32.67;25.03;;;11.60;99.00;;;;;;10317273;28;20226;-68
2023/03/03 09:08:57;;;;;;;32.93;24.63;;;11.80;95.10;;;;;;10309230;28;20226;-69
2023/03/03 09:14:11;;;;;;;32.13;25.10;;;10.90;95.70;;;;;;10309838;28;20222;-68
2023/03/03 09:19:31;;;;;;;31.90;24.03;;;11.10;95.30;;;;;;10310745;28;20373;-68
2023/03/03 09:24:35;;;;;;;30.10;23.00;;;10.00;96.70;;;;;;10313822;28;20222;-68
2023/03/03 09:29:37;;;;;;;32.67;23.00;;;10.60;95.90;;;;;;10305659;28;20230;-68
2023/03/03 09:34:39;;;;;;;27.53;21.40;;;12.40;92.20;;;;;;10316686;28;20257;-69
2023/03/03 09:39:48;;;;;;;28.43;22.10;;;13.90;85.90;;;;;;10312211;28;20236;-68
2023/03/03 09:45:20;;;;;;;28.67;23.00;;;13.60;80.90;;;;;;10314129;28;20580;-68
2023/03/03 09:50:51;;;;;;;29.63;22.97;;;13.40;80.80;;;;;;10311355;28;20247;-70
2023/03/03 09:56:07;;;;;;;28.30;22.03;;;13.40;78.90;;;;;;10307238;28;20233;-69
2023/03/03 10:01:48;;;;;;;28.40;22.87;;;15.30;72.90;;;;;;10323242;28;20224;-70
2023/03/03 10:06:59;;;;;;;28.70;22.87;;;16.00;67.10;;;;;;10306522;28;20258;-68
2023/03/03 10:12:17;;;;;;;27.83;21.53;;;15.70;66.10;;;;;;10314947;28;20332;-69
2023/03/03 10:17:24;;;;;;;27.67;23.50;;;17.80;59.10;;;;;;10312636;28;20279;-69
2023/03/03 10:22:47;;;;;;;25.57;22.20;;;17.40;57.30;;;;;;10310220;28;20222;-68
2023/03/03 10:28:29;;;;;;;25.30;22.70;;;19.70;53.60;;;;;;10305422;28;20226;-69
2023/03/03 10:33:56;;;;;;;25.63;22.57;;;19.80;50.00;;;;;;10295738;28;20233;-69
2023/03/03 10:39:15;;;;;;;26.07;23.23;;;21.50;46.20;;;;;;10319230;28;20218;-69
2023/03/03 10:44:51;;;;;;;27.13;24.23;;;20.10;47.90;;;;;;10312264;28;20310;-68
2023/03/03 10:50:14;;;;;;;25.50;22.80;;;20.60;47.10;;;;;;10305404;28;20230;-68
2023/03/03 10:55:28;;;;;;;26.00;23.10;;;21.50;45.30;;;;;;10310760;28;20230;-69
2023/03/03 11:00:38;;;;;;;25.97;23.20;;;21.60;44.90;;;;;;10303355;28;20219;-68
2023/03/03 11:05:41;;;;;;;32.60;23.70;;;21.20;43.80;;;;;;10302115;28;20237;-68
2023/03/03 11:11:14;;;;;;;23.70;21.20;;;20.20;46.20;;;;;;10309065;28;20231;-69
2023/03/03 11:16:31;;;;;;;25.73;21.30;;;22.10;44.40;;;;;;10279527;28;20701;-69
2023/03/03 11:22:06;;;;;;;26.03;21.40;;;21.30;43.50;;;;;;10308493;28;20285;-68
2023/03/03 11:27:29;;;;;;;24.07;21.43;;;20.00;45.50;;;;;;10306522;28;20316;-68
2023/03/03 11:32:50;;;;;;;22.90;18.63;;;19.70;46.40;;;;;;10311407;28;20712;-69
2023/03/03 11:38:02;;;;;;;21.40;18.67;;;19.40;46.50;;;;;;10303761;28;20308;-69
2023/03/03 11:43:25;;;;;;;22.07;19.10;;;17.10;50.90;;;;;;10321331;28;20226;-69
2023/03/03 11:48:33;;;;;;;24.77;19.60;;;14.90;55.60;;;;;;10308915;28;20368;-69
2023/03/03 11:54:00;;;;;;;23.23;17.70;;;12.90;60.60;;;;;;10309657;28;20235;-69
2023/03/03 11:59:38;;;;;;;22.93;17.47;;;12.00;64.50;;;;;;10316501;28;20254;-69
2023/03/03 12:04:46;;;;;;;24.00;18.13;;;11.10;67.90;;;;;;10331870;28;20245;-69
2023/03/03 12:09:59;;;;;;;23.27;16.77;;;10.60;70.50;;;;;;10321958;28;20987;-69
2023/03/03 12:15:16;;;;;;;21.43;15.67;;;10.20;72.00;;;;;;10312487;28;20225;-69
2023/03/03 12:20:24;;;;;;;21.87;15.33;;;10.30;72.00;;;;;;10317446;28;20221;-68
2023/03/03 12:25:33;;;;;;;21.23;15.33;;;10.40;73.20;;;;;;10322755;28;20238;-69
2023/03/03 12:30:36;;;;;;;22.47;15.53;;;10.50;72.40;;;;;;10317846;28;20219;-68
2023/03/03 12:36:01;;;;;;;20.20;15.13;;;10.60;74.00;;;;;;10315215;28;20239;-69
2023/03/03 12:41:28;;;;;;;20.03;14.60;;;10.50;74.80;;;;;;10315721;28;20210;-69
2023/03/03 12:46:46;;;;;;;20.03;14.77;;;10.20;75.20;;;;;;10318998;28;20229;-69
2023/03/03 12:51:57;;;;;;;22.27;15.60;;;10.00;76.80;;;;;;10324086;28;20261;-70
2023/03/03 12:57:31;;;;;;;19.17;14.43;;;10.20;76.90;;;;;;10311431;28;20685;-68
2023/03/03 13:02:38;;;;;;;20.33;14.83;;;10.20;76.80;;;;;;10321716;28;20245;-70
2023/03/03 13:08:05;;;;;;;17.07;13.23;;;10.10;76.90;;;;;;10321886;28;20696;-69
2023/03/03 13:13:21;;;;;;;18.73;14.30;;;10.10;77.90;;;;;;10316444;28;20222;-69
2023/03/03 13:18:36;;;;;;;18.80;13.60;;;10.10;78.00;;;;;;10311963;28;20609;-69
2023/03/03 13:23:51;;;;;;;19.87;13.33;;;10.00;77.80;;;;;;10316135;28;20230;-69
2023/03/03 13:29:04;;;;;;;18.80;13.27;;;10.10;78.20;;;;;;10315015;28;20230;-69
2023/03/03 13:34:12;;;;;;;16.63;12.57;;;10.20;78.20;;;;;;10309997;28;20222;-70
2023/03/03 13:39:41;;;;;;;19.73;13.33;;;10.00;78.40;;;;;;10305547;28;20226;-68
2023/03/03 13:44:44;;;;;;;21.70;13.37;;;10.00;78.30;;;;;;10312846;28;20869;-69
2023/03/03 13:50:11;;;;;;;17.47;12.93;;;9.90;79.00;;;;;;10333991;28;20321;-70
2023/03/03 13:55:23;;;;;;;16.73;12.80;;;9.80;79.60;;;;;;10309846;28;20742;-69
2023/03/03 14:00:48;;;;;;;16.83;12.50;;;9.70;80.20;;;;;;10305950;28;20194;-69
2023/03/03 14:06:01;;;;;;;17.37;12.37;;;9.60;80.80;;;;;;10304065;28;20222;-70
2023/03/03 14:11:08;;;;;;;17.57;12.73;;;9.50;80.50;;;;;;10307756;28;20648;-69
2023/03/03 14:16:32;;;;;;;15.40;11.30;;;9.50;80.50;;;;;;10307253;28;20321;-70
2023/03/03 14:21:52;;;;;;;18.73;12.60;;;9.60;80.90;;;;;;10303721;28;20580;-69
2023/03/03 14:26:55;;;;;;;18.00;12.07;;;9.50;80.40;;;;;;10321914;28;20225;-68
2023/03/03 14:32:22;;;;;;;16.83;11.90;;;9.50;80.90;;;;;;10312664;28;20507;-69
2023/03/03 14:38:02;;;;;;;17.50;12.67;;;9.40;80.20;;;;;;10311294;28;20306;-70
2023/03/03 14:43:19;;;;;;;17.37;11.43;;;9.30;80.80;;;;;;10288243;28;20229;-70
2023/03/03 14:48:25;;;;;;;16.63;11.03;;;9.30;79.20;;;;;;10311809;28;20226;-69
2023/03/03 14:53:37;;;;;;;19.43;11.83;;;9.30;79.30;;;;;;10317050;28;20228;-69
2023/03/03 14:58:40;;;;;;;18.47;12.10;;;9.20;79.40;;;;;;10303009;28;20730;-69
2023/03/03 15:03:48;;;;;;;23.07;15.90;;;9.00;80.40;;;;;;10309258;28;20222;-68
2023/03/03 15:08:48;;;;;;;35.20;25.37;;;8.90;81.70;;;;;;10303815;28;20281;-68
2023/03/03 15:13:49;;;;;;;37.67;24.77;;;9.00;82.00;;;;;;10307496;28;20624;-69
2023/03/03 15:19:12;;;;;;;34.63;22.30;;;8.90;81.90;;;;;;10311971;28;20244;-68
2023/03/03 15:24:22;;;;;;;27.47;19.87;;;8.90;81.70;;;;;;10327775;28;20212;-71
2023/03/03 15:29:36;;;;;;;20.20;13.83;;;8.90;82.20;;;;;;10314135;28;20226;-70
2023/03/03 15:35:00;;;;;;;15.13;10.90;;;8.80;81.90;;;;;;10313165;28;20231;-70
2023/03/03 15:40:22;;;;;;;14.87;10.03;;;8.70;82.00;;;;;;10327533;28;20327;-70
2023/03/03 15:46:07;;;;;;;13.37;9.67;;;8.60;82.20;;;;;;10333754;28;20638;-69
2023/03/03 15:51:11;;;;;;;14.90;8.70;;;8.50;81.30;;;;;;10177020;29;20250;-70
2023/03/03 15:56:21;;;;;;;11.10;7.83;;;8.30;82.10;;;;;;10282977;28;20316;-70
2023/03/03 16:01:33;;;;;;;12.53;8.40;;;8.30;83.10;;;;;;10324097;28;20218;-70
2023/03/03 16:06:51;;;;;;;10.80;7.80;;;8.20;83.70;;;;;;10313587;28;20226;-71
2023/03/03 16:12:06;;;;;;;11.80;8.40;;;8.20;84.00;;;;;;10322233;28;20253;-70
2023/03/03 16:17:30;;;;;;;12.47;8.77;;;8.10;84.30;;;;;;10323664;28;20233;-72
2023/03/03 16:23:09;;;;;;;14.37;8.90;;;8.00;85.50;;;;;;10324338;28;20222;-72
2023/03/03 16:28:20;;;;;;;13.03;8.27;;;7.90;86.40;;;;;;10303595;28;20221;-68
2023/03/03 16:33:36;;;;;;;12.50;9.07;;;7.80;87.10;;;;;;10312505;28;20230;-69
2023/03/03 16:39:08;;;;;;;10.97;8.07;;;7.70;86.90;;;;;;10315109;28;20284;-73
2023/03/03 16:44:20;;;;;;;11.73;7.93;;;7.60;87.80;;;;;;10290888;28;20261;-69
2023/03/03 16:49:43;;;;;;;13.50;7.93;;;7.40;88.10;;;;;;10329967;28;20754;-70
2023/03/03 16:55:01;;;;;;;10.00;7.30;;;7.30;88.30;;;;;;10322910;28;20230;-71
2023/03/03 17:00:13;;;;;;;11.03;7.43;;;7.20;88.80;;;;;;10322758;28;20226;-72
2023/03/03 17:05:43;;;;;;;10.83;7.60;;;7.00;89.60;;;;;;10316848;28;20249;-71
2023/03/03 17:11:11;;;;;;;14.07;8.43;;;6.90;90.20;;;;;;10325170;28;20661;-72
2023/03/03 17:16:24;;;;;;;13.93;8.33;;;6.80;90.70;;;;;;10321488;28;20604;-73
2023/03/03 17:22:01;;;;;;;13.07;7.93;;;6.70;91.40;;;;;;10319535;28;20228;-72
2023/03/03 17:27:30;;;;;;;13.13;8.03;;;6.60;91.90;;;;;;10353796;28;20646;-71
2023/03/03 17:32:49;;;;;;;13.63;9.00;;;6.40;92.60;;;;;;10334818;28;20702;-72
2023/03/03 17:37:56;;;;;;;13.27;8.70;;;6.30;93.30;;;;;;10367641;28;20230;-72
2023/03/03 17:43:01;;;;;;;13.83;8.87;;;6.30;93.70;;;;;;10327967;28;20271;-70
2023/03/03 17:48:08;;;;;;;13.20;8.60;;;6.20;94.10;;;;;;10325993;28;20218;-71
2023/03/03 17:53:37;;;;;;;21.37;9.57;;;6.00;94.70;;;;;;10315856;28;20222;-72
2023/03/03 17:59:12;;;;;;;16.03;7.97;;;5.90;95.20;;;;;;10304748;28;20232;-70
2023/03/03 18:04:33;;;;;;;10.73;7.00;;;5.90;95.30;;;;;;10321933;28;20213;-71
2023/03/03 18:09:51;;;;;;;11.77;7.37;;;5.90;95.50;;;;;;10311993;28;20230;-71
2023/03/03 18:15:37;;;;;;;14.83;8.53;;;5.90;96.00;;;;;;10326138;28;20224;-73
2023/03/03 18:20:54;;;;;;;13.37;7.93;;;5.80;96.40;;;;;;10287660;28;20285;-72
2023/03/03 18:26:00;;;;;;;9.43;6.20;;;5.70;96.90;;;;;;10313318;28;20238;-72
2023/03/03 18:31:03;;;;;;;9.83;6.50;;;5.60;97.50;;;;;;10322935;28;20217;-70
2023/03/03 18:36:32;;;;;;;14.43;6.60;;;5.50;98.10;;;;;;10326463;28;20233;-70
2023/03/03 18:42:07;;;;;;;9.73;6.30;;;5.40;98.90;;;;;;10310572;28;20256;-70
2023/03/03 18:47:11;;;;;;;13.23;7.30;;;5.20;99.60;;;;;;10322232;28;20684;-70
2023/03/03 18:52:35;;;;;;;12.70;8.33;;;5.10;99.90;;;;;;10324496;28;20571;-70
2023/03/03 18:57:37;;;;;;;9.90;6.67;;;5.00;99.90;;;;;;10317598;28;20225;-71
2023/03/03 19:02:47;;;;;;;10.20;7.07;;;5.00;99.90;;;;;;10317839;28;20221;-73
2023/03/03 19:07:50;;;;;;;11.33;7.13;;;4.90;99.90;;;;;;10314104;28;20233;-72
2023/03/03 19:12:53;;;;;;;10.97;7.57;;;4.80;99.90;;;;;;10324103;28;20222;-71
2023/03/03 19:17:57;;;;;;;10.47;7.03;;;4.80;99.90;;;;;;10315760;28;20233;-70
2023/03/03 19:23:14;;;;;;;12.47;8.00;;;4.80;99.90;;;;;;10323443;28;20217;-67
2023/03/03 19:28:14;;;;;;;11.83;7.30;;;4.80;99.90;;;;;;10309188;28;20304;-68
2023/03/03 19:33:27;;;;;;;14.33;8.53;;;4.70;99.90;;;;;;10323759;28;20811;-67
2023/03/03 19:38:59;;;;;;;12.40;7.80;;;4.70;99.90;;;;;;10320087;28;20230;-69
2023/03/03 19:44:41;;;;;;;10.87;7.03;;;4.60;99.90;;;;;;10322309;28;20217;-70
2023/03/03 19:49:42;;;;;;;13.40;8.07;;;4.50;99.90;;;;;;10323838;28;20253;-70
2023/03/03 19:54:49;;;;;;;14.23;8.23;;;4.50;99.90;;;;;;10323073;28;20341;-72
2023/03/03 20:00:08;;;;;;;12.73;8.57;;;4.40;99.90;;;;;;10324345;28;20242;-70
2023/03/03 20:05:32;;;;;;;14.83;8.43;;;4.30;99.90;;;;;;10318261;28;20213;-69
2023/03/03 20:11:10;;;;;;;13.20;8.97;;;4.30;99.90;;;;;;10324315;28;20232;-69
2023/03/03 20:16:40;;;;;;;13.27;8.10;;;4.20;99.90;;;;;;10357795;28;20261;-71
2023/03/03 20:22:04;;;;;;;14.90;9.03;;;4.10;99.90;;;;;;10339194;28;20222;-70
2023/03/03 20:27:32;;;;;;;15.47;8.63;;;4.10;99.90;;;;;;10319916;28;20221;-70
2023/03/03 20:33:08;;;;;;;15.50;9.43;;;4.00;99.90;;;;;;10324382;28;20661;-71
2023/03/03 20:38:21;;;;;;;16.80;9.37;;;3.90;99.90;;;;;;10326259;28;20227;-71
2023/03/03 20:43:39;;;;;;;15.70;10.37;;;3.90;99.90;;;;;;10323077;28;20316;-70
2023/03/03 20:49:17;;;;;;;16.53;10.50;;;3.80;99.90;;;;;;10315610;28;20922;-70
2023/03/03 20:54:42;;;;;;;15.20;9.77;;;3.80;99.90;;;;;;10315426;28;20233;-71
2023/03/03 20:59:59;;;;;;;15.17;8.00;;;3.70;99.90;;;;;;10320345;28;20701;-70
2023/03/03 21:05:21;;;;;;;13.10;7.80;;;3.70;99.90;;;;;;10314930;28;20582;-69
2023/03/03 21:10:25;;;;;;;13.20;7.83;;;3.60;99.90;;;;;;10325115;28;20330;-69
2023/03/03 21:15:30;;;;;;;14.10;7.17;;;3.60;99.90;;;;;;10326950;28;20250;-69
2023/03/03 21:20:33;;;;;;;12.57;8.07;;;3.60;99.90;;;;;;10329970;28;20314;-71
2023/03/03 21:25:39;;;;;;;13.07;7.10;;;3.50;99.90;;;;;;10329164;28;20647;-69
2023/03/03 21:31:00;;;;;;;12.93;7.50;;;3.40;99.90;;;;;;10325443;28;20279;-68
2023/03/03 21:36:05;;;;;;;12.90;7.40;;;3.40;99.90;;;;;;10316379;28;20218;-67
2023/03/03 21:41:07;;;;;;;13.87;7.87;;;3.30;99.90;;;;;;10314358;28;20647;-67
2023/03/03 21:46:08;;;;;;;13.13;8.07;;;3.30;99.90;;;;;;10325363;28;20221;-67
2023/03/03 21:51:10;;;;;;;12.40;7.60;;;3.20;99.90;;;;;;10306176;28;20233;-69
2023/03/03 21:56:15;;;;;;;13.73;8.43;;;3.10;99.90;;;;;;10319369;28;20236;-67
2023/03/03 22:01:16;;;;;;;13.57;7.97;;;3.00;99.90;;;;;;10326748;28;20629;-67
2023/03/03 22:06:17;;;;;;;11.43;7.87;;;2.90;99.90;;;;;;10321770;28;20289;-68
2023/03/03 22:11:17;;;;;;;13.73;7.80;;;2.90;99.90;;;;;;10320069;28;20213;-69
2023/03/03 22:16:18;;;;;;;11.40;7.67;;;2.80;99.90;;;;;;10310750;28;20229;-67
2023/03/03 22:21:19;;;;;;;14.63;8.30;;;2.70;99.90;;;;;;10314495;28;20214;-67
2023/03/03 22:26:20;;;;;;;12.60;8.07;;;2.60;99.90;;;;;;10319967;28;20850;-68
2023/03/03 22:31:21;;;;;;;10.67;7.43;;;2.60;99.90;;;;;;10322951;28;20381;-67
2023/03/03 22:36:22;;;;;;;12.47;8.10;;;2.50;99.90;;;;;;10323374;28;20300;-66
2023/03/03 22:41:22;;;;;;;12.97;8.33;;;2.40;99.90;;;;;;10323180;28;20233;-68
2023/03/03 22:46:23;;;;;;;12.43;8.30;;;2.30;99.90;;;;;;10328267;28;20636;-66
2023/03/03 22:51:24;;;;;;;12.50;7.97;;;2.30;99.90;;;;;;10317759;28;20236;-67
2023/03/03 22:56:25;;;;;;;13.67;8.13;;;2.20;99.90;;;;;;10324000;28;20587;-67
2023/03/03 23:01:26;;;;;;;13.20;8.23;;;2.10;99.90;;;;;;10325304;28;20220;-66
2023/03/03 23:06:26;;;;;;;13.10;7.77;;;2.10;99.90;;;;;;10322971;28;20601;-68
2023/03/03 23:11:27;;;;;;;15.90;9.10;;;2.00;99.90;;;;;;10324103;28;20221;-67
2023/03/03 23:16:27;;;;;;;15.27;8.90;;;2.00;99.90;;;;;;10325111;28;20230;-66
2023/03/03 23:21:28;;;;;;;13.57;8.73;;;1.90;99.90;;;;;;10317182;28;20214;-69
2023/03/03 23:26:29;;;;;;;14.73;9.73;;;1.90;99.90;;;;;;10315739;28;20221;-67
2023/03/03 23:31:30;;;;;;;13.47;8.77;;;1.90;99.90;;;;;;10317737;28;20228;-67
2023/03/03 23:36:30;;;;;;;15.00;9.40;;;1.80;99.90;;;;;;10322010;28;20595;-66
2023/03/03 23:41:31;;;;;;;13.63;8.83;;;1.80;99.90;;;;;;10313269;28;20683;-66
2023/03/03 23:46:32;;;;;;;14.50;9.90;;;1.80;99.90;;;;;;10325417;28;20236;-67
2023/03/03 23:51:33;;;;;;;17.57;8.63;;;1.80;99.90;;;;;;10328337;28;20300;-68
2023/03/03 23:56:34;;;;;;;16.07;10.10;;;1.70;99.90;;;;;;10332452;28;20591;-67
